createdAt,value
2018-05-17T00:02:11.678Z,10.20
2018-05-17T00:04:39.308Z,10.20
2018-05-17T00:07:06.977Z,10.20
2018-05-17T00:09:34.699Z,10.10
2018-05-17T00:12:03.147Z,10.10
2018-05-17T00:14:30.823Z,10.10
2018-05-17T00:16:58.459Z,10.10
2018-05-17T00:19:26.126Z,10.00
2018-05-17T00:21:53.787Z,10.00
2018-05-17T00:24:21.427Z,10.00
2018-05-17T00:26:49.101Z,10.00
2018-05-17T00:29:16.737Z,10.10
2018-05-17T00:31:44.396Z,10.10
2018-05-17T00:34:12.107Z,10.10
2018-05-17T00:36:39.733Z,10.10
2018-05-17T00:39:07.399Z,10.10
2018-05-17T00:41:35.028Z,10.10
2018-05-17T00:44:02.720Z,10.10
2018-05-17T00:46:30.385Z,10.10
2018-05-17T00:48:58.009Z,10.10
2018-05-17T00:51:25.674Z,10.10
2018-05-17T00:53:53.310Z,10.10
2018-05-17T00:56:21.738Z,10.20
2018-05-17T00:58:49.369Z,10.20
2018-05-17T01:01:17.035Z,10.20
2018-05-17T01:03:44.708Z,10.20
2018-05-17T01:06:12.339Z,10.20
2018-05-17T01:08:40.027Z,10.10
2018-05-17T01:11:07.650Z,10.10
2018-05-17T01:13:36.070Z,10.10
2018-05-17T01:16:03.767Z,10.10
2018-05-17T01:18:31.396Z,10.10
2018-05-17T01:20:59.065Z,10.10
2018-05-17T01:23:26.691Z,10.10
2018-05-17T01:25:54.354Z,10.10
2018-05-17T01:28:22.027Z,10.10
2018-05-17T01:30:49.697Z,10.10
2018-05-17T01:33:17.366Z,10.10
2018-05-17T01:35:44.996Z,10.00
2018-05-17T01:38:22.125Z,10.10
2018-05-17T01:40:49.771Z,10.10
2018-05-17T01:43:17.416Z,10.10
2018-05-17T01:45:45.066Z,10.10
2018-05-17T01:48:13.467Z,10.10
2018-05-17T01:50:41.116Z,10.10
2018-05-17T01:53:08.775Z,10.10
2018-05-17T01:55:36.454Z,10.00
2018-05-17T01:58:04.114Z,10.00
2018-05-17T02:00:31.803Z,10.10
2018-05-17T02:02:59.491Z,10.10
2018-05-17T02:05:27.106Z,10.10
2018-05-17T02:07:54.800Z,10.00
2018-05-17T02:10:22.458Z,10.00
2018-05-17T02:12:50.899Z,10.00
2018-05-17T02:15:18.550Z,10.00
2018-05-17T02:17:46.209Z,10.10
2018-05-17T02:20:13.944Z,10.10
2018-05-17T02:22:41.575Z,10.10
2018-05-17T02:25:10.008Z,10.10
2018-05-17T02:27:37.676Z,10.10
2018-05-17T02:30:05.343Z,10.10
2018-05-17T02:32:33.013Z,10.10
2018-05-17T02:35:00.760Z,10.10
2018-05-17T02:37:28.431Z,10.10
2018-05-17T02:39:56.114Z,10.10
2018-05-17T02:42:24.518Z,10.10
2018-05-17T02:44:52.190Z,10.10
2018-05-17T02:47:20.608Z,10.10
2018-05-17T02:49:48.270Z,10.00
2018-05-17T02:52:15.942Z,10.10
2018-05-17T02:54:44.354Z,10.10
2018-05-17T02:57:12.021Z,10.10
2018-05-17T02:59:39.656Z,10.10
2018-05-17T03:02:07.335Z,10.10
2018-05-17T03:04:35.000Z,10.10
2018-05-17T03:07:02.636Z,10.10
2018-05-17T03:09:30.304Z,10.00
2018-05-17T03:11:57.928Z,10.10
2018-05-17T03:14:25.585Z,10.10
2018-05-17T03:16:53.245Z,10.10
2018-05-17T03:19:20.867Z,10.10
2018-05-17T03:21:48.538Z,10.10
2018-05-17T03:24:16.165Z,10.10
2018-05-17T03:26:43.831Z,10.10
2018-05-17T03:29:11.500Z,10.10
2018-05-17T03:31:39.131Z,10.10
2018-05-17T03:34:07.586Z,10.10
2018-05-17T03:36:35.238Z,10.00
2018-05-17T03:39:02.967Z,10.10
2018-05-17T03:41:30.634Z,10.10
2018-05-17T03:43:58.278Z,10.10
2018-05-17T03:46:25.943Z,10.10
2018-05-17T03:48:53.582Z,10.10
2018-05-17T03:51:21.251Z,10.10
2018-05-17T03:53:48.911Z,10.10
2018-05-17T03:56:16.541Z,10.10
2018-05-17T03:58:44.990Z,10.10
2018-05-17T04:01:24.620Z,10.10
2018-05-17T04:04:04.196Z,10.20
2018-05-17T04:06:38.670Z,10.20
2018-05-17T04:09:06.367Z,10.20
2018-05-17T04:11:34.044Z,10.20
2018-05-17T04:14:02.478Z,10.30
2018-05-17T04:16:30.169Z,10.20
2018-05-17T04:18:57.810Z,10.30
2018-05-17T04:21:25.470Z,10.30
2018-05-17T04:23:53.117Z,10.30
2018-05-17T04:26:20.771Z,10.30
2018-05-17T04:28:48.432Z,10.30
2018-05-17T04:31:16.047Z,10.30
2018-05-17T04:33:43.714Z,10.30
2018-05-17T04:36:12.100Z,10.40
2018-05-17T04:38:39.755Z,10.40
2018-05-17T04:41:07.406Z,10.40
2018-05-17T04:43:35.815Z,10.50
2018-05-17T04:46:03.502Z,10.50
2018-05-17T04:48:31.130Z,10.50
2018-05-17T04:50:58.803Z,10.50
2018-05-17T04:53:26.484Z,10.50
2018-05-17T04:55:54.893Z,10.50
2018-05-17T04:58:22.563Z,10.50
2018-05-17T05:00:50.990Z,10.70
2018-05-17T05:03:18.664Z,10.70
2018-05-17T05:05:46.345Z,10.70
2018-05-17T05:08:13.983Z,10.70
2018-05-17T05:10:41.639Z,10.70
2018-05-17T05:13:09.266Z,10.70
2018-05-17T05:15:36.944Z,10.70
2018-05-17T05:18:04.668Z,10.70
2018-05-17T05:20:33.094Z,10.60
2018-05-17T05:23:00.794Z,10.60
2018-05-17T05:25:29.189Z,10.50
2018-05-17T05:27:57.610Z,10.60
2018-05-17T05:30:25.273Z,10.60
2018-05-17T05:32:52.895Z,10.70
2018-05-17T05:35:20.558Z,10.70
2018-05-17T05:37:48.182Z,10.60
2018-05-17T05:40:15.862Z,10.60
2018-05-17T05:42:43.534Z,10.60
2018-05-17T05:45:11.165Z,10.70
2018-05-17T05:47:38.824Z,10.70
2018-05-17T05:50:06.466Z,10.60
2018-05-17T05:52:34.594Z,10.60
2018-05-17T05:55:02.239Z,10.70
2018-05-17T05:57:29.867Z,10.70
2018-05-17T05:59:57.799Z,10.70
2018-05-17T06:02:25.569Z,10.70
2018-05-17T06:04:53.168Z,10.90
2018-05-17T06:07:20.854Z,11.10
2018-05-17T06:09:48.474Z,11.50
2018-05-17T06:12:16.120Z,11.70
2018-05-17T06:14:43.744Z,11.80
2018-05-17T06:17:11.395Z,12.00
2018-05-17T06:19:39.095Z,12.10
2018-05-17T06:22:06.732Z,12.30
2018-05-17T06:24:34.409Z,12.50
2018-05-17T06:27:02.047Z,12.50
2018-05-17T06:29:29.716Z,12.40
2018-05-17T06:31:57.377Z,12.40
2018-05-17T06:34:24.993Z,12.40
2018-05-17T06:36:53.412Z,12.50
2018-05-17T06:39:21.038Z,12.50
2018-05-17T06:41:49.468Z,13.10
2018-05-17T06:44:17.157Z,13.10
2018-05-17T06:46:44.807Z,13.50
2018-05-17T06:49:12.465Z,13.50
2018-05-17T06:51:40.106Z,13.50
2018-05-17T06:54:07.766Z,13.50
2018-05-17T06:56:35.411Z,13.40
2018-05-17T06:59:03.041Z,13.70
2018-05-17T07:01:31.470Z,14.10
2018-05-17T07:03:59.101Z,14.00
2018-05-17T07:06:26.765Z,14.40
2018-05-17T07:08:54.431Z,14.60
2018-05-17T07:11:22.105Z,14.60
2018-05-17T07:13:49.767Z,14.40
2018-05-17T07:16:17.530Z,14.40
2018-05-17T07:18:45.540Z,14.20
2018-05-17T07:21:12.871Z,14.00
2018-05-17T07:23:40.500Z,13.90
2018-05-17T07:26:08.237Z,13.70
2018-05-17T07:28:35.867Z,13.70
2018-05-17T07:31:03.560Z,13.70
2018-05-17T07:33:31.218Z,13.70
2018-05-17T07:35:58.838Z,13.80
2018-05-17T07:38:26.490Z,13.60
2018-05-17T07:40:54.122Z,13.60
2018-05-17T07:43:21.770Z,13.50
2018-05-17T07:45:49.426Z,13.40
2018-05-17T07:48:17.833Z,13.20
2018-05-17T07:50:45.491Z,13.20
2018-05-17T07:53:13.107Z,13.20
2018-05-17T07:55:40.879Z,13.10
2018-05-17T07:58:08.451Z,13.10
2018-05-17T08:00:36.179Z,13.10
2018-05-17T08:03:03.803Z,13.30
2018-05-17T08:05:31.480Z,13.20
2018-05-17T08:07:59.194Z,13.20
2018-05-17T08:10:26.865Z,13.20
2018-05-17T08:12:54.486Z,13.10
2018-05-17T08:15:22.956Z,13.10
2018-05-17T08:17:51.607Z,13.10
2018-05-17T08:20:19.258Z,13.20
2018-05-17T08:22:46.907Z,13.20
2018-05-17T08:25:14.547Z,13.20
2018-05-17T08:27:42.439Z,13.30
2018-05-17T08:30:10.087Z,13.30
2018-05-17T08:32:37.785Z,13.30
2018-05-17T08:35:05.469Z,13.20
2018-05-17T08:37:33.131Z,13.30
2018-05-17T08:40:01.563Z,13.50
2018-05-17T08:42:29.284Z,13.50
2018-05-17T08:44:56.927Z,13.60
2018-05-17T08:47:25.346Z,13.60
2018-05-17T08:49:53.007Z,13.60
2018-05-17T08:52:20.634Z,13.70
2018-05-17T08:54:49.080Z,13.70
2018-05-17T08:57:16.726Z,13.70
2018-05-17T08:59:44.476Z,13.80
2018-05-17T09:02:12.853Z,13.90
2018-05-17T09:04:40.484Z,13.90
2018-05-17T09:07:08.152Z,14.00
2018-05-17T09:09:35.766Z,14.00
2018-05-17T09:12:03.443Z,13.90
2018-05-17T09:14:31.109Z,13.80
2018-05-17T09:16:59.517Z,13.60
2018-05-17T09:19:27.335Z,13.60
2018-05-17T09:21:55.767Z,13.70
2018-05-17T09:24:23.431Z,13.70
2018-05-17T09:26:51.115Z,13.80
2018-05-17T09:29:18.754Z,13.90
2018-05-17T09:31:46.862Z,14.00
2018-05-17T09:34:15.290Z,14.10
2018-05-17T09:36:43.739Z,14.20
2018-05-17T09:39:12.161Z,14.30
2018-05-17T09:41:39.886Z,14.30
2018-05-17T09:44:07.639Z,14.40
2018-05-17T09:46:36.045Z,14.60
2018-05-17T09:49:03.775Z,14.60
2018-05-17T09:51:32.209Z,15.00
2018-05-17T09:53:59.870Z,15.00
2018-05-17T09:56:27.532Z,15.20
2018-05-17T09:58:55.158Z,15.30
2018-05-17T10:01:22.808Z,15.30
2018-05-17T10:03:50.450Z,15.40
2018-05-17T10:06:18.886Z,15.80
2018-05-17T10:08:46.523Z,15.80
2018-05-17T10:11:14.177Z,16.20
2018-05-17T10:13:41.833Z,16.30
2018-05-17T10:16:09.503Z,16.30
2018-05-17T10:18:37.140Z,16.20
2018-05-17T10:21:04.820Z,15.90
2018-05-17T10:23:32.448Z,15.50
2018-05-17T10:26:00.868Z,14.90
2018-05-17T10:28:28.538Z,14.90
2018-05-17T10:30:56.156Z,14.90
2018-05-17T10:33:24.579Z,15.00
2018-05-17T10:35:52.218Z,15.00
2018-05-17T10:38:20.003Z,15.10
2018-05-17T10:40:47.662Z,15.40
2018-05-17T10:43:15.283Z,15.40
2018-05-17T10:45:43.718Z,15.50
2018-05-17T10:48:11.349Z,15.40
2018-05-17T10:50:38.993Z,15.50
2018-05-17T10:53:06.663Z,15.60
2018-05-17T10:55:34.289Z,15.50
2018-05-17T10:58:01.943Z,15.60
2018-05-17T11:00:29.570Z,15.70
2018-05-17T11:02:57.231Z,15.70
2018-05-17T11:05:24.916Z,16.00
2018-05-17T11:07:52.538Z,16.20
2018-05-17T11:10:20.203Z,16.50
2018-05-17T11:12:47.848Z,16.70
2018-05-17T11:15:15.554Z,16.80
2018-05-17T11:17:43.319Z,16.80
2018-05-17T11:20:10.971Z,16.90
2018-05-17T11:22:38.645Z,17.10
2018-05-17T11:25:07.054Z,17.30
2018-05-17T11:27:34.719Z,17.30
2018-05-17T11:30:02.411Z,17.30
2018-05-17T11:32:30.035Z,17.10
2018-05-17T11:34:57.693Z,17.10
2018-05-17T11:37:25.315Z,17.20
2018-05-17T11:39:52.999Z,17.30
2018-05-17T11:42:20.710Z,17.40
2018-05-17T11:44:48.361Z,17.30
2018-05-17T11:47:16.024Z,17.10
2018-05-17T11:49:43.643Z,16.90
2018-05-17T11:52:11.311Z,16.80
2018-05-17T11:54:38.990Z,16.70
2018-05-17T11:57:06.678Z,16.70
2018-05-17T11:59:34.333Z,16.60
2018-05-17T12:02:01.982Z,16.50
2018-05-17T12:04:30.419Z,16.40
2018-05-17T12:06:58.089Z,16.40
2018-05-17T12:09:25.711Z,16.30
2018-05-17T12:11:53.400Z,16.20
2018-05-17T12:14:21.895Z,16.20
2018-05-17T12:16:49.503Z,16.10
2018-05-17T12:19:17.198Z,16.10
2018-05-17T12:21:45.602Z,16.00
2018-05-17T12:24:13.261Z,16.00
2018-05-17T12:26:44.788Z,16.00
2018-05-17T12:29:13.245Z,15.90
2018-05-17T12:31:40.923Z,15.90
2018-05-17T12:34:08.574Z,15.80
2018-05-17T12:36:37.015Z,15.90
2018-05-17T12:39:06.614Z,15.90
2018-05-17T12:41:34.278Z,15.90
2018-05-17T12:44:01.935Z,16.00
2018-05-17T12:46:29.562Z,16.10
2018-05-17T12:48:57.299Z,16.00
2018-05-17T12:51:25.722Z,16.00
2018-05-17T12:53:53.374Z,16.00
2018-05-17T12:56:21.031Z,16.00
2018-05-17T12:58:48.663Z,15.90
2018-05-17T13:01:17.092Z,15.90
2018-05-17T13:03:44.714Z,15.90
2018-05-17T13:06:12.478Z,15.90
2018-05-17T13:08:40.121Z,15.80
2018-05-17T13:11:08.531Z,15.70
2018-05-17T13:13:36.200Z,15.70
2018-05-17T13:16:04.954Z,15.70
2018-05-17T13:18:32.622Z,15.80
2018-05-17T13:21:00.262Z,16.00
2018-05-17T13:23:28.700Z,16.10
2018-05-17T13:25:56.343Z,16.10
2018-05-17T13:28:24.053Z,16.20
2018-05-17T13:30:53.022Z,16.00
2018-05-17T13:33:20.653Z,16.00
2018-05-17T13:35:48.331Z,15.90
2018-05-17T13:38:15.978Z,15.90
2018-05-17T13:40:43.669Z,15.90
2018-05-17T13:43:11.410Z,15.80
2018-05-17T13:45:39.064Z,15.30
2018-05-17T13:48:07.257Z,14.90
2018-05-17T13:50:34.899Z,14.50
2018-05-17T13:53:02.555Z,14.20
2018-05-17T13:55:30.256Z,13.80
2018-05-17T13:57:57.879Z,13.50
2018-05-17T14:00:25.528Z,13.10
2018-05-17T14:02:53.225Z,12.70
2018-05-17T14:05:20.866Z,12.40
2018-05-17T14:07:48.539Z,12.20
2018-05-17T14:10:16.171Z,12.00
2018-05-17T14:12:43.851Z,11.80
2018-05-17T14:15:11.602Z,11.70
2018-05-17T14:17:39.177Z,11.70
2018-05-17T14:20:06.875Z,11.60
2018-05-17T14:22:35.279Z,11.50
2018-05-17T14:25:02.952Z,11.40
2018-05-17T14:27:31.387Z,11.40
2018-05-17T14:29:59.805Z,11.40
2018-05-17T14:32:27.498Z,11.40
2018-05-17T14:34:55.121Z,11.40
2018-05-17T14:37:22.798Z,11.40
2018-05-17T14:39:50.429Z,11.40
2018-05-17T14:42:18.129Z,11.40
2018-05-17T14:44:45.800Z,11.30
2018-05-17T14:47:13.447Z,11.30
2018-05-17T14:49:41.125Z,11.30
2018-05-17T14:52:08.791Z,11.30
2018-05-17T14:54:36.505Z,11.30
2018-05-17T14:57:04.190Z,11.30
2018-05-17T14:59:31.816Z,11.40
2018-05-17T15:01:59.526Z,11.50
2018-05-17T15:04:27.171Z,11.50
2018-05-17T15:06:55.739Z,11.60
2018-05-17T15:09:23.418Z,11.60
2018-05-17T15:11:51.096Z,11.60
2018-05-17T15:14:18.748Z,11.60
2018-05-17T15:16:46.383Z,11.60
2018-05-17T15:19:14.131Z,11.60
2018-05-17T15:21:41.760Z,11.60
2018-05-17T15:24:10.180Z,11.70
2018-05-17T15:26:37.860Z,11.60
2018-05-17T15:29:05.784Z,11.70
2018-05-17T15:31:33.432Z,11.80
2018-05-17T15:34:01.863Z,11.90
2018-05-17T15:36:29.493Z,11.90
2018-05-17T15:38:57.159Z,11.90
2018-05-17T15:41:24.836Z,12.10
2018-05-17T15:43:52.470Z,12.10
2018-05-17T15:46:20.130Z,12.20
2018-05-17T15:48:47.777Z,12.20
2018-05-17T15:51:15.471Z,12.30
2018-05-17T15:53:43.238Z,12.40
2018-05-17T15:56:10.881Z,12.40
2018-05-17T15:58:38.723Z,12.40
2018-05-17T16:01:06.392Z,12.40
2018-05-17T16:03:34.053Z,12.50
2018-05-17T16:06:01.810Z,12.60
2018-05-17T16:08:29.568Z,12.60
2018-05-17T16:10:57.970Z,12.70
2018-05-17T16:13:25.640Z,12.70
2018-05-17T16:15:53.348Z,12.80
2018-05-17T16:18:20.984Z,12.70
2018-05-17T16:20:48.667Z,12.70
2018-05-17T16:23:17.112Z,12.80
2018-05-17T16:25:44.746Z,12.90
2018-05-17T16:28:12.419Z,12.90
2018-05-17T16:30:40.098Z,12.90
2018-05-17T16:33:07.733Z,12.90
2018-05-17T16:35:35.407Z,13.00
2018-05-17T16:38:03.092Z,13.10
2018-05-17T16:40:30.725Z,13.20
2018-05-17T16:42:58.406Z,13.20
2018-05-17T16:45:26.071Z,13.20
2018-05-17T16:47:53.711Z,13.30
2018-05-17T16:50:21.371Z,13.30
2018-05-17T16:52:49.100Z,13.30
2018-05-17T16:55:17.492Z,13.30
2018-05-17T16:57:45.163Z,13.30
2018-05-17T17:00:12.868Z,13.40
2018-05-17T17:02:40.500Z,13.30
2018-05-17T17:05:08.191Z,13.40
2018-05-17T17:07:35.924Z,13.40
2018-05-17T17:10:03.701Z,13.50
2018-05-17T17:12:31.436Z,13.40
2018-05-17T17:14:59.177Z,13.50
2018-05-17T17:17:26.823Z,13.40
2018-05-17T17:19:54.480Z,13.30
2018-05-17T17:22:22.922Z,13.20
2018-05-17T17:24:50.596Z,13.20
2018-05-17T17:27:18.250Z,13.20
2018-05-17T17:29:45.920Z,13.20
2018-05-17T17:32:14.315Z,13.10
2018-05-17T17:34:41.979Z,13.10
2018-05-17T17:37:09.633Z,13.10
2018-05-17T17:39:37.302Z,13.20
2018-05-17T17:42:05.000Z,13.20
2018-05-17T17:44:32.704Z,13.20
2018-05-17T17:47:01.132Z,13.20
2018-05-17T17:49:28.831Z,13.20
2018-05-17T17:51:56.552Z,13.20
2018-05-17T17:54:24.996Z,13.20
2018-05-17T17:56:55.746Z,13.20
2018-05-17T17:59:23.526Z,13.20
2018-05-17T18:01:51.277Z,13.20
2018-05-17T18:04:19.104Z,13.20
2018-05-17T18:06:47.621Z,13.20
2018-05-17T18:09:15.397Z,13.20
2018-05-17T18:11:43.181Z,13.20
2018-05-17T18:14:11.016Z,13.20
2018-05-17T18:16:39.782Z,13.10
2018-05-17T18:19:07.730Z,13.10
2018-05-17T18:21:35.501Z,13.10
2018-05-17T18:24:03.369Z,13.00
2018-05-17T18:26:31.139Z,13.00
2018-05-17T18:28:58.954Z,13.00
2018-05-17T18:31:26.831Z,12.90
2018-05-17T18:33:54.781Z,12.90
2018-05-17T18:36:22.664Z,12.80
2018-05-17T18:38:50.572Z,12.80
2018-05-17T18:41:18.613Z,12.70
2018-05-17T18:43:47.172Z,12.60
2018-05-17T18:46:14.920Z,12.50
2018-05-17T18:48:42.778Z,12.50
2018-05-17T18:51:10.802Z,12.40
2018-05-17T18:53:39.330Z,12.30
2018-05-17T18:56:07.097Z,12.30
2018-05-17T18:58:34.867Z,12.30
2018-05-17T19:01:03.014Z,12.20
2018-05-17T19:03:30.968Z,12.20
2018-05-17T19:05:58.930Z,12.10
2018-05-17T19:08:26.922Z,12.10
2018-05-17T19:10:54.812Z,12.10
2018-05-17T19:13:23.559Z,12.10
2018-05-17T19:15:51.384Z,12.10
2018-05-17T19:18:20.116Z,12.20
2018-05-17T19:20:48.003Z,12.20
2018-05-17T19:23:15.840Z,12.20
2018-05-17T19:25:43.773Z,12.30
2018-05-17T19:28:11.638Z,12.40
2018-05-17T19:30:40.241Z,12.30
2018-05-17T19:33:08.094Z,12.30
2018-05-17T19:35:36.040Z,12.30
2018-05-17T19:38:03.876Z,12.30
2018-05-17T19:40:31.815Z,12.30
2018-05-17T19:42:59.752Z,12.30
2018-05-17T19:45:27.527Z,12.30
2018-05-17T19:47:56.179Z,12.30
2018-05-17T19:50:24.088Z,12.30
2018-05-17T19:52:51.918Z,12.40
2018-05-17T19:55:20.507Z,12.40
2018-05-17T19:57:48.938Z,12.40
2018-05-17T20:00:16.695Z,12.40
2018-05-17T20:02:44.371Z,12.40
2018-05-17T20:05:12.033Z,12.50
2018-05-17T20:07:39.752Z,12.50
2018-05-17T20:10:07.774Z,12.50
2018-05-17T20:12:35.454Z,12.50
2018-05-17T20:15:03.091Z,12.50
2018-05-17T20:17:30.783Z,12.50
2018-05-17T20:19:59.212Z,12.50
2018-05-17T20:22:27.211Z,12.40
2018-05-17T20:24:54.922Z,12.50
2018-05-17T20:27:22.831Z,12.50
2018-05-17T20:29:50.748Z,12.50
2018-05-17T20:32:18.495Z,12.40
2018-05-17T20:34:46.415Z,12.40
2018-05-17T20:37:14.292Z,12.40
2018-05-17T20:39:42.078Z,12.40
2018-05-17T20:42:10.777Z,12.30
2018-05-17T20:44:38.817Z,12.30
2018-05-17T20:47:07.659Z,12.30
2018-05-17T20:49:35.927Z,12.20
2018-05-17T20:52:05.140Z,12.30
2018-05-17T20:54:33.236Z,12.20
2018-05-17T20:57:01.151Z,12.20
2018-05-17T20:59:28.953Z,12.20
2018-05-17T21:01:56.880Z,12.20
2018-05-17T21:04:24.807Z,12.20
2018-05-17T21:06:53.521Z,12.20
2018-05-17T21:09:21.497Z,12.20
2018-05-17T21:11:49.373Z,12.20
2018-05-17T21:14:17.077Z,12.20
2018-05-17T21:16:44.788Z,12.10
2018-05-17T21:19:13.514Z,12.10
2018-05-17T21:21:42.723Z,12.10
2018-05-17T21:24:10.615Z,12.10
2018-05-17T21:26:38.538Z,12.10
2018-05-17T21:29:06.388Z,12.10
2018-05-17T21:31:34.048Z,12.10
2018-05-17T21:34:01.818Z,12.00
2018-05-17T21:36:30.151Z,11.90
2018-05-17T21:38:57.859Z,11.90
2018-05-17T21:41:25.536Z,11.90
2018-05-17T21:43:53.179Z,11.90
2018-05-17T21:46:20.843Z,11.80
2018-05-17T21:48:48.510Z,11.70
2018-05-17T21:51:16.158Z,11.70
2018-05-17T21:53:43.835Z,11.60
2018-05-17T21:56:11.500Z,11.70
2018-05-17T21:58:39.172Z,11.60
2018-05-17T22:01:07.611Z,11.60
2018-05-17T22:03:35.290Z,11.50
2018-05-17T22:06:02.947Z,11.50
2018-05-17T22:08:30.631Z,11.50
2018-05-17T22:10:59.068Z,11.40
2018-05-17T22:13:26.714Z,11.30
2018-05-17T22:15:54.441Z,11.40
2018-05-17T22:18:22.900Z,11.30
2018-05-17T22:20:50.562Z,11.30
2018-05-17T22:23:19.008Z,11.30
2018-05-17T22:25:46.693Z,11.30
2018-05-17T22:28:14.336Z,11.30
2018-05-17T22:30:42.006Z,11.40
2018-05-17T22:33:09.677Z,11.30
2018-05-17T22:35:37.307Z,11.30
2018-05-17T22:38:04.999Z,11.20
2018-05-17T22:40:32.666Z,11.20
2018-05-17T22:43:00.323Z,11.20
2018-05-17T22:45:27.986Z,11.20
2018-05-17T22:47:56.437Z,11.10
2018-05-17T22:50:24.070Z,11.10
2018-05-17T22:52:51.736Z,11.10
2018-05-17T22:55:19.412Z,11.00
2018-05-17T22:57:58.901Z,11.00
2018-05-17T23:00:27.355Z,11.00
2018-05-17T23:02:54.989Z,11.00
2018-05-17T23:05:22.658Z,11.00
2018-05-17T23:07:50.405Z,11.00
2018-05-17T23:10:18.026Z,11.00
2018-05-17T23:12:45.683Z,11.00
2018-05-17T23:15:14.103Z,11.00
2018-05-17T23:17:41.755Z,11.00
2018-05-17T23:20:09.447Z,11.00
2018-05-17T23:22:38.634Z,11.00
2018-05-17T23:25:09.060Z,11.00
2018-05-17T23:27:36.728Z,11.00
2018-05-17T23:30:04.414Z,11.00
2018-05-17T23:32:32.831Z,11.00
2018-05-17T23:35:00.579Z,10.90
2018-05-17T23:37:28.963Z,10.90
2018-05-17T23:40:02.561Z,10.90
2018-05-17T23:42:30.998Z,11.00
2018-05-17T23:44:58.639Z,11.00
2018-05-17T23:47:26.318Z,11.00
2018-05-17T23:49:53.987Z,11.00
2018-05-17T23:52:22.390Z,11.10
2018-05-17T23:54:50.048Z,11.00
2018-05-17T23:57:17.727Z,11.10
2018-05-17T23:59:45.362Z,11.10
